Terminal Aerodrome Forecast
Issued by NWS Sterling, VA

Current Version | Previous Version | Graphics & Text | Print | Product List | Glossary On
Versions: 1 2 3 4 5 6 7 8 9 10 11 12 13 14 15 16 17 18 19
000
FTUS41 KLWX 192300
TAFMRB
TAF
KMRB 192322Z 2000/2024 VRB03KT P6SM BKN200
     FM201200 19005KT P6SM BKN200
     FM201500 19008G16KT P6SM BKN200
     FM202300 19005KT P6SM BKN200=

USA.gov is the U.S. government's official web portal to all federal, state and local government web resources and services.